Time;durP1;ratioP1;P1;durP2;ratioP2;P2;SDS_P1;SDS_P2;PMS_P1;PMS_P2;Temp;Humidity;BMP_temperature;BMP_pressure;BME280_temperature;BME280_humidity;BME280_pressure;Samples;Min_cycle;Max_cycle;Signal;HPM_P1;HPM_P2
2022/08/31 00:05:41;;;;;;;10.65;9.55;;;17.20;96.20;;;;;;5091808;28;20212;-88
2022/08/31 00:08:08;;;;;;;11.43;10.23;;;17.30;96.30;;;;;;5090230;28;20694;-88
2022/08/31 00:10:39;;;;;;;11.82;10.05;;;17.30;96.20;;;;;;5091820;28;20204;-89
2022/08/31 00:13:08;;;;;;;15.30;10.90;;;17.40;95.80;;;;;;5091956;28;20196;-88
2022/08/31 00:15:35;;;;;;;12.07;10.05;;;17.50;95.90;;;;;;5093762;28;20200;-89
2022/08/31 00:18:03;;;;;;;12.77;9.85;;;17.70;95.50;;;;;;5093837;28;20215;-88
2022/08/31 00:20:30;;;;;;;11.77;9.43;;;17.70;95.00;;;;;;5093754;28;20201;-88
2022/08/31 00:22:57;;;;;;;11.10;9.60;;;17.70;95.10;;;;;;5094905;28;20220;-88
2022/08/31 00:25:24;;;;;;;10.85;9.57;;;17.60;95.20;;;;;;5094057;28;20205;-88
2022/08/31 00:27:51;;;;;;;11.23;10.05;;;17.60;95.40;;;;;;5094975;28;20706;-88
2022/08/31 00:30:19;;;;;;;14.40;11.00;;;17.70;95.30;;;;;;5093864;28;20200;-88
2022/08/31 00:32:46;;;;;;;11.68;9.90;;;17.70;95.20;;;;;;5093553;28;20208;-88
2022/08/31 00:35:12;;;;;;;12.10;9.38;;;17.80;94.90;;;;;;5092845;28;20193;-88
2022/08/31 00:37:39;;;;;;;11.02;9.93;;;17.70;94.90;;;;;;5093929;28;20205;-88
2022/08/31 00:40:08;;;;;;;13.65;10.88;;;17.70;95.10;;;;;;5094494;28;20197;-88
2022/08/31 00:42:35;;;;;;;11.63;10.23;;;17.70;94.70;;;;;;5090318;28;20197;-88
2022/08/31 00:45:02;;;;;;;13.60;10.77;;;17.70;94.90;;;;;;5094239;28;20711;-88
2022/08/31 00:47:30;;;;;;;11.93;10.73;;;17.80;94.90;;;;;;5091340;28;20210;-88
2022/08/31 00:49:58;;;;;;;11.93;10.18;;;17.80;94.90;;;;;;5083144;28;20189;-88
2022/08/31 00:52:27;;;;;;;11.68;10.30;;;17.70;95.20;;;;;;5093593;28;20214;-88
2022/08/31 00:54:59;;;;;;;11.57;10.43;;;17.70;95.10;;;;;;5093713;28;20197;-88
2022/08/31 00:57:31;;;;;;;16.67;11.20;;;17.70;95.10;;;;;;5083138;28;20209;-88
2022/08/31 00:59:59;;;;;;;15.70;11.00;;;17.70;95.10;;;;;;5089800;28;20206;-88
2022/08/31 01:02:33;;;;;;;14.98;10.55;;;17.70;95.30;;;;;;5087001;28;20648;-88
2022/08/31 01:05:00;;;;;;;14.38;11.23;;;17.60;95.40;;;;;;5092230;28;20781;-88
2022/08/31 01:07:27;;;;;;;13.73;10.93;;;17.70;95.40;;;;;;5093034;28;20196;-88
2022/08/31 01:09:55;;;;;;;14.13;11.13;;;17.60;95.30;;;;;;5093762;28;20211;-88
2022/08/31 01:12:22;;;;;;;13.10;10.35;;;17.60;95.10;;;;;;5093812;28;20219;-88
2022/08/31 01:14:49;;;;;;;15.55;11.40;;;17.60;95.10;;;;;;5091575;28;20202;-88
2022/08/31 01:17:16;;;;;;;11.48;10.27;;;17.60;95.00;;;;;;5090207;28;20197;-88
2022/08/31 01:19:53;;;;;;;12.20;10.68;;;17.70;95.20;;;;;;5099697;28;20216;-88
2022/08/31 01:22:28;;;;;;;12.48;11.23;;;17.80;94.90;;;;;;5094668;28;20204;-88
2022/08/31 01:24:58;;;;;;;11.85;10.68;;;17.80;94.90;;;;;;5096711;28;20204;-88
2022/08/31 01:27:28;;;;;;;11.77;10.05;;;17.80;94.60;;;;;;5094931;28;20208;-88
2022/08/31 01:29:59;;;;;;;12.30;11.10;;;17.80;94.70;;;;;;5098555;28;20671;-88
2022/08/31 01:32:26;;;;;;;12.25;10.82;;;17.70;94.80;;;;;;5081360;28;20203;-88
2022/08/31 01:34:53;;;;;;;13.98;10.38;;;17.60;95.10;;;;;;5093180;28;20203;-88
2022/08/31 01:37:20;;;;;;;14.02;10.13;;;17.70;95.10;;;;;;5093419;28;20200;-88
2022/08/31 01:39:49;;;;;;;12.70;9.98;;;17.60;95.10;;;;;;5090456;28;20204;-88
2022/08/31 01:42:18;;;;;;;11.32;10.23;;;17.60;95.20;;;;;;5092078;28;20619;-88
2022/08/31 01:44:45;;;;;;;13.07;10.48;;;17.50;95.30;;;;;;5092477;28;20217;-88
2022/08/31 01:47:12;;;;;;;11.70;10.50;;;17.50;95.40;;;;;;5086380;28;21454;-88
2022/08/31 01:49:39;;;;;;;11.55;10.38;;;17.40;95.40;;;;;;5092711;28;20222;-88
2022/08/31 01:52:06;;;;;;;12.00;9.85;;;17.40;95.50;;;;;;5094631;28;20203;-88
2022/08/31 01:54:37;;;;;;;14.98;10.45;;;17.40;95.50;;;;;;5088216;28;20213;-88
2022/08/31 01:57:04;;;;;;;12.15;10.00;;;17.40;95.50;;;;;;5093458;28;20213;-88
2022/08/31 01:59:32;;;;;;;11.73;10.32;;;17.40;95.60;;;;;;5088714;28;20212;-88
2022/08/31 02:01:59;;;;;;;12.23;10.02;;;17.40;95.50;;;;;;5093241;28;20204;-88
2022/08/31 02:04:28;;;;;;;14.00;11.07;;;17.30;95.60;;;;;;5089506;28;20213;-88
2022/08/31 02:06:58;;;;;;;13.32;10.02;;;17.30;95.90;;;;;;5094333;28;20657;-88
2022/08/31 02:09:25;;;;;;;13.00;11.23;;;17.30;96.00;;;;;;5089232;28;20220;-88
2022/08/31 02:11:55;;;;;;;12.32;11.10;;;17.20;96.10;;;;;;5086003;28;20207;-88
2022/08/31 02:14:25;;;;;;;12.32;11.10;;;17.20;96.20;;;;;;5092307;28;20212;-88
2022/08/31 02:16:56;;;;;;;12.05;9.93;;;17.10;96.50;;;;;;5092941;28;20203;-89
2022/08/31 02:19:23;;;;;;;11.82;10.63;;;17.10;96.60;;;;;;5092459;28;20743;-88
2022/08/31 02:21:50;;;;;;;13.43;10.80;;;17.10;96.80;;;;;;5092294;28;20212;-88
2022/08/31 02:24:17;;;;;;;13.20;10.65;;;17.10;96.60;;;;;;5093083;28;20210;-88
2022/08/31 02:26:44;;;;;;;14.85;11.35;;;17.10;96.80;;;;;;5092895;28;20201;-88
2022/08/31 02:29:11;;;;;;;12.10;10.90;;;17.00;97.00;;;;;;5090943;28;20213;-88
2022/08/31 02:31:38;;;;;;;12.13;10.85;;;17.00;97.40;;;;;;5093833;28;20208;-88
2022/08/31 02:34:06;;;;;;;11.57;10.48;;;17.00;97.40;;;;;;5082904;28;20201;-88
2022/08/31 02:36:33;;;;;;;12.68;11.13;;;17.00;97.40;;;;;;5094156;28;20201;-88
2022/08/31 02:39:00;;;;;;;12.13;10.65;;;17.00;97.40;;;;;;5090986;28;20230;-88
2022/08/31 02:41:27;;;;;;;11.93;10.52;;;17.00;97.40;;;;;;5092546;28;20196;-88
2022/08/31 02:43:54;;;;;;;11.57;10.35;;;17.10;97.10;;;;;;5090302;28;20286;-87
2022/08/31 02:46:21;;;;;;;11.40;10.20;;;17.10;97.10;;;;;;5091168;28;20203;-87
2022/08/31 02:48:48;;;;;;;11.77;10.32;;;17.10;96.80;;;;;;5089177;28;21407;-88
2022/08/31 02:51:16;;;;;;;11.27;10.05;;;17.10;96.60;;;;;;5093348;28;20226;-88
2022/08/31 02:53:43;;;;;;;13.35;10.55;;;17.10;96.60;;;;;;5089792;28;20196;-88
2022/08/31 02:56:13;;;;;;;11.55;10.20;;;17.20;96.40;;;;;;5090220;28;20201;-88
2022/08/31 02:58:43;;;;;;;11.55;9.90;;;17.20;96.30;;;;;;5092221;28;20559;-88
2022/08/31 03:01:10;;;;;;;12.18;9.77;;;17.10;96.40;;;;;;5091585;28;20742;-88
2022/08/31 03:03:38;;;;;;;14.77;10.20;;;17.10;96.40;;;;;;5091298;28;20197;-88
2022/08/31 03:06:05;;;;;;;12.35;10.52;;;17.30;96.40;;;;;;5093112;28;20680;-88
2022/08/31 03:08:33;;;;;;;12.07;9.70;;;17.30;96.30;;;;;;5090197;28;20231;-88
2022/08/31 03:11:01;;;;;;;11.65;10.40;;;17.20;95.90;;;;;;5093380;28;20200;-88
2022/08/31 03:13:31;;;;;;;13.05;10.27;;;17.20;95.90;;;;;;5092552;28;20211;-88
2022/08/31 03:15:58;;;;;;;11.50;10.27;;;17.20;96.20;;;;;;5097885;28;20568;-88
2022/08/31 03:18:25;;;;;;;12.77;10.55;;;17.20;96.30;;;;;;5096012;28;20219;-88
2022/08/31 03:21:07;;;;;;;12.00;9.80;;;17.30;96.20;;;;;;5099052;28;20204;-88
2022/08/31 03:23:36;;;;;;;14.52;9.95;;;17.30;95.90;;;;;;5111461;28;20176;-88
2022/08/31 03:26:04;;;;;;;13.60;10.30;;;17.30;96.10;;;;;;5107691;28;20201;-88
2022/08/31 03:28:31;;;;;;;13.35;10.32;;;17.20;96.40;;;;;;5114602;28;20224;-88
2022/08/31 03:31:01;;;;;;;12.85;10.40;;;17.20;96.50;;;;;;5098837;28;20554;-88
2022/08/31 03:33:28;;;;;;;11.68;10.45;;;17.10;96.50;;;;;;5088940;28;20299;-88
2022/08/31 03:35:55;;;;;;;12.77;9.68;;;17.10;96.50;;;;;;5092270;28;20789;-88
2022/08/31 03:38:22;;;;;;;11.57;10.48;;;17.10;96.70;;;;;;5090975;28;20211;-88
2022/08/31 03:40:52;;;;;;;12.65;10.50;;;17.20;96.70;;;;;;5088078;28;20211;-88
2022/08/31 03:43:20;;;;;;;14.25;10.48;;;17.20;96.50;;;;;;5088909;28;20211;-88
2022/08/31 03:45:48;;;;;;;12.43;9.65;;;17.10;96.50;;;;;;5090540;28;20650;-88
2022/08/31 03:48:15;;;;;;;14.02;10.65;;;17.10;96.50;;;;;;5095839;28;20267;-88
2022/08/31 03:50:42;;;;;;;11.30;10.13;;;17.10;96.60;;;;;;5095718;28;20192;-88
2022/08/31 03:53:11;;;;;;;10.75;9.65;;;17.10;96.70;;;;;;5094656;28;20231;-88
2022/08/31 03:55:41;;;;;;;11.77;10.18;;;17.10;96.60;;;;;;5092985;28;20283;-88
2022/08/31 03:58:10;;;;;;;13.13;10.25;;;17.20;96.50;;;;;;5095593;28;20203;-88
2022/08/31 04:00:37;;;;;;;11.50;10.20;;;17.20;96.50;;;;;;5088529;28;20218;-88
2022/08/31 04:03:04;;;;;;;13.95;10.40;;;17.20;96.40;;;;;;5094866;28;20301;-88
2022/08/31 04:05:33;;;;;;;11.63;10.32;;;17.30;96.40;;;;;;5094211;28;20216;-88
2022/08/31 04:08:00;;;;;;;17.60;10.95;;;17.20;96.40;;;;;;5093503;28;20579;-88
2022/08/31 04:10:26;;;;;;;12.00;10.38;;;17.20;96.50;;;;;;5097048;28;20221;-88
2022/08/31 04:12:53;;;;;;;17.02;11.00;;;17.10;96.80;;;;;;5093516;28;20207;-88
2022/08/31 04:15:26;;;;;;;12.95;10.00;;;17.10;96.90;;;;;;5100379;28;20196;-87
2022/08/31 04:17:53;;;;;;;13.38;10.65;;;17.10;96.90;;;;;;5095050;28;20192;-88
2022/08/31 04:20:20;;;;;;;12.50;10.20;;;17.10;96.70;;;;;;5102727;28;20212;-88
2022/08/31 04:22:47;;;;;;;11.32;9.98;;;17.10;96.70;;;;;;5095260;28;20673;-88
2022/08/31 04:25:14;;;;;;;16.20;10.07;;;17.10;96.70;;;;;;5094376;28;20204;-88
2022/08/31 04:27:49;;;;;;;12.65;10.35;;;17.20;96.60;;;;;;5095995;28;20291;-88
2022/08/31 04:30:27;;;;;;;10.95;9.80;;;17.10;96.60;;;;;;5092109;28;20212;-88
2022/08/31 04:32:54;;;;;;;11.73;10.38;;;17.20;96.70;;;;;;5096142;28;20219;-88
2022/08/31 04:35:21;;;;;;;13.45;10.52;;;17.20;96.50;;;;;;5085688;28;20201;-88
2022/08/31 04:37:48;;;;;;;11.98;10.02;;;17.20;96.50;;;;;;5096824;28;20216;-88
2022/08/31 04:40:19;;;;;;;13.98;10.48;;;17.20;96.50;;;;;;5096103;28;20196;-88
2022/08/31 04:42:46;;;;;;;16.25;10.65;;;17.20;96.60;;;;;;5095204;28;20574;-88
2022/08/31 04:45:14;;;;;;;16.00;11.02;;;17.30;96.60;;;;;;5083982;28;20228;-88
2022/08/31 04:47:43;;;;;;;14.23;10.52;;;17.20;96.60;;;;;;5094840;28;20204;-87
2022/08/31 04:50:12;;;;;;;11.93;9.85;;;17.20;96.80;;;;;;5093835;28;20221;-88
2022/08/31 04:52:39;;;;;;;13.60;10.60;;;17.20;97.00;;;;;;5093705;28;20296;-88
2022/08/31 04:55:06;;;;;;;16.23;10.25;;;17.20;97.00;;;;;;5094893;28;20204;-88
2022/08/31 04:57:39;;;;;;;14.95;10.73;;;17.20;96.80;;;;;;5093012;28;20196;-88
2022/08/31 05:00:09;;;;;;;12.43;9.95;;;17.30;96.80;;;;;;5093546;28;20250;-88
2022/08/31 05:02:36;;;;;;;10.50;9.50;;;17.30;96.80;;;;;;5092807;28;20212;-88
2022/08/31 05:05:05;;;;;;;13.77;10.23;;;17.40;96.40;;;;;;5092663;28;20201;-88
2022/08/31 05:07:37;;;;;;;11.65;9.80;;;17.40;96.40;;;;;;5094419;28;20249;-88
2022/08/31 05:10:05;;;;;;;13.68;10.32;;;17.40;96.70;;;;;;5091110;28;20216;-88
2022/08/31 05:12:32;;;;;;;12.65;10.32;;;17.40;96.70;;;;;;5092989;28;20589;-88
2022/08/31 05:14:59;;;;;;;13.20;10.05;;;17.40;96.80;;;;;;5095865;28;20212;-88
2022/08/31 05:17:26;;;;;;;13.73;10.20;;;17.40;97.10;;;;;;5091692;28;20682;-88
2022/08/31 05:19:53;;;;;;;12.52;10.77;;;17.50;96.80;;;;;;5089927;28;20201;-89
2022/08/31 05:22:21;;;;;;;14.35;10.77;;;17.50;97.00;;;;;;5095304;28;20192;-88
2022/08/31 05:24:49;;;;;;;17.20;10.77;;;17.50;96.80;;;;;;5092086;28;20555;-87
2022/08/31 05:27:16;;;;;;;12.82;10.13;;;17.60;96.70;;;;;;5090437;28;20203;-87
2022/08/31 05:29:43;;;;;;;14.27;10.93;;;17.60;96.70;;;;;;5088854;28;20220;-85
2022/08/31 05:32:09;;;;;;;15.82;11.02;;;17.60;96.40;;;;;;5092124;28;20192;-86
2022/08/31 05:34:36;;;;;;;13.43;10.43;;;17.60;96.60;;;;;;5087396;28;20200;-87
2022/08/31 05:37:03;;;;;;;15.13;10.63;;;17.60;96.60;;;;;;5090277;28;20216;-87
2022/08/31 05:39:32;;;;;;;14.25;10.40;;;17.60;96.50;;;;;;5088337;28;20648;-87
2022/08/31 05:41:59;;;;;;;13.07;10.68;;;17.70;96.30;;;;;;5090499;28;20292;-86
2022/08/31 05:44:26;;;;;;;12.65;10.90;;;17.90;95.90;;;;;;5088260;28;20755;-87
2022/08/31 05:46:53;;;;;;;14.90;10.98;;;17.80;95.90;;;;;;5087799;28;20200;-88
2022/08/31 05:49:31;;;;;;;14.25;10.63;;;17.70;96.10;;;;;;5089785;28;20223;-87
2022/08/31 05:51:58;;;;;;;13.20;10.20;;;17.70;96.40;;;;;;5091640;28;20200;-89
2022/08/31 05:54:25;;;;;;;14.45;11.00;;;17.70;96.40;;;;;;5084638;28;20613;-88
2022/08/31 05:56:54;;;;;;;12.07;10.38;;;17.60;96.80;;;;;;5085411;28;20612;-87
2022/08/31 05:59:20;;;;;;;17.70;11.18;;;17.60;96.60;;;;;;5086795;28;20208;-88
2022/08/31 06:02:03;;;;;;;12.48;10.93;;;17.70;96.60;;;;;;5089058;28;20599;-87
2022/08/31 06:04:30;;;;;;;12.55;9.75;;;17.70;96.40;;;;;;5086615;28;20243;-87
2022/08/31 06:06:57;;;;;;;14.13;10.68;;;17.70;96.20;;;;;;5090938;28;20279;-88
2022/08/31 06:09:24;;;;;;;14.65;10.77;;;17.80;96.00;;;;;;5091902;28;20695;-87
2022/08/31 06:11:53;;;;;;;16.05;10.95;;;17.80;95.80;;;;;;5089676;28;20208;-88
2022/08/31 06:14:21;;;;;;;13.77;10.55;;;17.80;96.00;;;;;;5087226;28;20203;-87
2022/08/31 06:16:49;;;;;;;15.68;11.18;;;17.90;96.20;;;;;;5090593;28;20207;-88
2022/08/31 06:19:16;;;;;;;14.80;11.18;;;18.00;96.10;;;;;;5091569;28;20207;-87
2022/08/31 06:21:48;;;;;;;13.65;10.45;;;18.10;95.80;;;;;;5089766;28;20203;-87
2022/08/31 06:24:24;;;;;;;14.60;10.82;;;18.10;95.70;;;;;;5092321;28;20200;-86
2022/08/31 06:27:01;;;;;;;12.30;10.77;;;18.20;95.80;;;;;;5092896;28;20204;-86
2022/08/31 06:29:31;;;;;;;11.70;10.38;;;18.30;95.50;;;;;;5092388;28;20246;-87
2022/08/31 06:32:06;;;;;;;14.77;10.15;;;18.40;95.40;;;;;;5089123;28;20215;-86
2022/08/31 06:34:39;;;;;;;15.50;10.10;;;18.70;93.80;;;;;;5094749;28;20207;-84
2022/08/31 06:37:09;;;;;;;10.98;9.88;;;18.80;93.50;;;;;;5094902;28;20204;-86
2022/08/31 06:39:36;;;;;;;14.75;10.93;;;18.80;93.60;;;;;;5095508;28;20608;-86
2022/08/31 06:42:05;;;;;;;14.02;10.80;;;18.70;93.40;;;;;;5095102;28;20291;-87
2022/08/31 06:44:32;;;;;;;13.13;10.10;;;18.60;93.90;;;;;;5095558;28;20272;-86
2022/08/31 06:46:59;;;;;;;13.93;11.07;;;18.70;93.90;;;;;;5095472;28;20255;-86
2022/08/31 06:49:25;;;;;;;14.85;10.75;;;18.60;93.80;;;;;;5095725;28;20234;-84
2022/08/31 06:52:02;;;;;;;20.02;10.98;;;18.50;93.90;;;;;;5095347;28;20288;-85
2022/08/31 06:54:31;;;;;;;14.80;10.07;;;18.40;94.20;;;;;;5095437;28;20226;-85
2022/08/31 06:57:01;;;;;;;12.57;10.13;;;18.30;94.30;;;;;;5097546;28;20272;-85
2022/08/31 06:59:29;;;;;;;13.57;9.50;;;18.40;94.20;;;;;;5093601;28;20227;-87
2022/08/31 07:01:57;;;;;;;13.57;9.88;;;18.40;94.10;;;;;;5091303;28;20435;-86
2022/08/31 07:04:24;;;;;;;14.93;9.35;;;18.50;93.90;;;;;;5095101;28;20648;-88
2022/08/31 07:06:55;;;;;;;13.75;9.60;;;18.50;94.00;;;;;;5097830;28;20238;-86
2022/08/31 07:09:22;;;;;;;11.52;9.35;;;18.50;94.30;;;;;;5099426;28;20232;-85
2022/08/31 07:11:52;;;;;;;12.05;9.77;;;18.40;94.20;;;;;;5096530;28;20571;-87
2022/08/31 07:14:21;;;;;;;13.70;10.48;;;18.40;94.10;;;;;;5092492;28;20192;-85
2022/08/31 07:16:53;;;;;;;12.98;10.32;;;18.50;93.40;;;;;;5096619;28;20200;-86
2022/08/31 07:19:20;;;;;;;12.35;9.57;;;18.40;94.20;;;;;;5096134;28;20201;-87
2022/08/31 07:21:49;;;;;;;11.98;9.43;;;18.40;94.00;;;;;;5100137;28;20290;-88
2022/08/31 07:24:23;;;;;;;15.02;9.48;;;18.50;94.30;;;;;;5105349;28;20287;-88
2022/08/31 07:26:57;;;;;;;12.52;8.90;;;18.60;93.50;;;;;;5107959;28;20217;-88
2022/08/31 07:29:35;;;;;;;14.40;10.40;;;18.70;93.30;;;;;;5100965;28;20195;-88
2022/08/31 07:32:03;;;;;;;14.38;10.27;;;18.60;93.70;;;;;;5098454;28;20220;-88
2022/08/31 07:34:32;;;;;;;12.25;9.73;;;18.70;93.50;;;;;;5103332;28;20235;-88
2022/08/31 07:42:28;;;;;;;14.93;10.50;;;19.10;92.40;;;;;;5035873;28;20209;-86
2022/08/31 07:44:57;;;;;;;13.02;10.20;;;19.10;92.40;;;;;;5037106;28;20286;-88
2022/08/31 07:47:27;;;;;;;14.40;10.30;;;19.20;92.40;;;;;;5039245;28;20198;-88
2022/08/31 07:49:59;;;;;;;12.93;9.93;;;19.20;92.30;;;;;;5036445;28;20237;-87
2022/08/31 07:52:32;;;;;;;13.77;10.57;;;19.20;92.40;;;;;;5040329;28;20206;-88
2022/08/31 07:55:15;;;;;;;16.35;10.90;;;19.10;92.40;;;;;;5039110;28;20195;-87
2022/08/31 07:57:43;;;;;;;10.73;9.63;;;19.20;92.40;;;;;;5039316;28;20213;-88
2022/08/31 08:00:16;;;;;;;16.92;10.20;;;19.40;92.10;;;;;;5037680;28;20194;-88
2022/08/31 08:02:45;;;;;;;16.08;10.10;;;19.60;90.80;;;;;;5037987;28;20208;-88
2022/08/31 08:05:21;;;;;;;11.35;9.50;;;19.50;90.80;;;;;;5027995;28;20222;-88
2022/08/31 08:07:52;;;;;;;16.52;10.40;;;19.70;90.10;;;;;;5038659;28;20609;-88
2022/08/31 08:10:23;;;;;;;13.57;10.60;;;19.60;89.50;;;;;;5028939;28;20225;-88
2022/08/31 08:12:52;;;;;;;11.55;10.20;;;19.60;90.50;;;;;;5037123;28;20249;-88
2022/08/31 08:15:19;;;;;;;13.23;9.38;;;19.60;89.40;;;;;;5037362;28;20233;-88
2022/08/31 08:17:47;;;;;;;15.80;9.18;;;19.60;90.10;;;;;;5087890;28;20207;-89
2022/08/31 08:20:14;;;;;;;15.35;9.73;;;19.70;89.40;;;;;;5098398;28;20197;-88
2022/08/31 08:22:43;;;;;;;14.65;9.63;;;19.60;89.30;;;;;;5099499;28;20193;-88
2022/08/31 08:25:25;;;;;;;13.50;9.77;;;19.60;90.00;;;;;;5095526;28;20192;-88
2022/08/31 08:27:55;;;;;;;12.00;8.77;;;19.70;89.90;;;;;;5089530;28;20196;-88
2022/08/31 08:30:23;;;;;;;10.93;8.23;;;19.70;89.00;;;;;;5097968;28;20236;-87
2022/08/31 08:32:51;;;;;;;12.05;8.30;;;19.80;83.70;;;;;;5098268;28;20208;-88
2022/08/31 08:35:20;;;;;;;9.13;8.15;;;19.90;82.00;;;;;;5096517;28;20562;-88
2022/08/31 08:37:46;;;;;;;10.35;7.88;;;19.80;80.70;;;;;;5097937;28;20319;-88
2022/08/31 08:40:21;;;;;;;10.68;8.32;;;19.80;82.00;;;;;;5097745;28;20192;-88
2022/08/31 08:42:48;;;;;;;8.95;7.93;;;20.00;80.80;;;;;;5079352;28;20204;-88
2022/08/31 08:45:15;;;;;;;11.32;8.40;;;20.00;80.80;;;;;;5092460;28;20227;-88
2022/08/31 08:47:55;;;;;;;10.82;8.50;;;20.00;80.10;;;;;;5084672;28;20199;-87
2022/08/31 08:50:25;;;;;;;12.32;8.57;;;20.20;81.40;;;;;;5088689;28;20229;-88
2022/08/31 08:52:53;;;;;;;14.35;8.30;;;20.20;81.00;;;;;;5100146;28;20217;-86
2022/08/31 08:55:22;;;;;;;9.90;8.10;;;20.00;80.80;;;;;;5106495;28;20193;-87
2022/08/31 08:57:55;;;;;;;13.43;8.90;;;19.90;80.60;;;;;;5103517;28;20674;-87
2022/08/31 09:00:29;;;;;;;11.85;8.05;;;19.80;83.00;;;;;;5105887;28;20202;-87
2022/08/31 09:03:12;;;;;;;15.05;8.90;;;19.70;80.60;;;;;;5103834;28;20277;-87
2022/08/31 09:06:02;;;;;;;12.40;9.18;;;19.60;80.60;;;;;;5107042;28;20215;-87
2022/08/31 09:09:19;;;;;;;8.88;7.97;;;19.50;84.00;;;;;;5102960;28;20196;-87
2022/08/31 09:11:59;;;;;;;9.63;7.70;;;19.70;80.70;;;;;;5099882;28;20679;-87
2022/08/31 09:14:56;;;;;;;11.73;7.70;;;19.80;80.70;;;;;;5104808;28;20206;-87
2022/08/31 09:17:41;;;;;;;9.38;8.18;;;20.00;80.90;;;;;;5104242;28;20273;-87
2022/08/31 09:20:11;;;;;;;10.05;7.45;;;20.40;77.50;;;;;;5103328;28;20205;-87
2022/08/31 09:22:49;;;;;;;13.10;7.18;;;20.50;75.60;;;;;;5101710;28;20200;-87
2022/08/31 09:25:17;;;;;;;9.80;7.43;;;20.70;74.60;;;;;;5100537;28;20226;-87
2022/08/31 09:27:55;;;;;;;12.15;7.40;;;21.00;69.80;;;;;;5101798;28;20195;-87
2022/08/31 09:30:38;;;;;;;12.98;8.25;;;21.00;70.40;;;;;;5091693;28;20601;-89
2022/08/31 09:33:05;;;;;;;12.13;8.45;;;21.00;68.30;;;;;;5094275;28;20208;-88
2022/08/31 09:35:40;;;;;;;10.93;8.55;;;21.10;66.70;;;;;;5098790;28;20206;-87
2022/08/31 09:38:10;;;;;;;10.65;8.80;;;21.00;71.30;;;;;;5099376;28;20196;-87
2022/08/31 09:40:40;;;;;;;12.63;9.38;;;21.00;73.10;;;;;;5100494;28;20192;-87
2022/08/31 09:43:11;;;;;;;21.05;9.75;;;20.80;77.00;;;;;;5091155;28;20203;-88
2022/08/31 09:45:54;;;;;;;10.45;8.90;;;20.80;76.40;;;;;;5095006;28;20212;-88
2022/08/31 09:48:43;;;;;;;12.98;9.32;;;20.60;80.10;;;;;;5096846;28;20204;-88
2022/08/31 09:51:21;;;;;;;10.68;9.27;;;20.40;76.90;;;;;;5098225;28;20220;-88
2022/08/31 09:56:59;;;;;;;11.38;8.65;;;20.30;79.30;;;;;;5099596;28;20218;-88
2022/08/31 09:59:36;;;;;;;11.27;9.82;;;20.30;81.00;;;;;;5086470;28;20264;-87
2022/08/31 10:02:30;;;;;;;11.40;9.30;;;20.50;77.80;;;;;;5103947;28;20207;-87
2022/08/31 10:05:31;;;;;;;12.63;9.25;;;20.50;77.80;;;;;;5104823;28;20207;-87
2022/08/31 10:08:06;;;;;;;11.65;9.60;;;20.40;78.30;;;;;;5079105;28;20211;-87
2022/08/31 10:10:37;;;;;;;11.32;9.02;;;20.20;79.80;;;;;;5098058;28;20226;-87
2022/08/31 10:13:09;;;;;;;16.35;8.85;;;20.00;80.80;;;;;;5101046;28;20612;-87
2022/08/31 10:15:41;;;;;;;11.73;7.78;;;19.80;80.70;;;;;;5105035;28;20690;-87
2022/08/31 10:18:36;;;;;;;10.60;7.53;;;19.80;82.40;;;;;;5093075;28;20269;-87
2022/08/31 10:21:08;;;;;;;11.60;8.07;;;19.90;82.10;;;;;;5092847;28;20208;-89
2022/08/31 10:23:53;;;;;;;10.75;7.55;;;19.70;80.60;;;;;;5086771;28;20656;-89
2022/08/31 10:26:30;;;;;;;10.60;7.35;;;19.80;82.80;;;;;;5094093;28;20205;-90
2022/08/31 10:29:07;;;;;;;12.13;7.38;;;19.90;82.80;;;;;;5072392;28;20211;-90
2022/08/31 10:31:44;;;;;;;12.30;7.40;;;20.00;82.10;;;;;;5093182;28;20656;-89
2022/08/31 10:37:09;;;;;;;11.98;8.00;;;19.80;80.70;;;;;;5092145;28;20256;-86
2022/08/31 10:39:43;;;;;;;9.57;7.72;;;19.90;80.80;;;;;;5098595;28;20201;-87
2022/08/31 10:42:28;;;;;;;14.00;8.90;;;19.90;80.80;;;;;;5100274;28;20194;-86
2022/08/31 10:45:10;;;;;;;9.88;8.23;;;20.10;79.50;;;;;;5085355;28;20737;-89
2022/08/31 10:47:45;;;;;;;10.50;7.90;;;20.00;80.80;;;;;;5089951;28;20208;-89
2022/08/31 10:50:22;;;;;;;10.88;8.00;;;20.00;80.90;;;;;;5093301;28;20200;-89
2022/08/31 10:52:57;;;;;;;13.73;8.68;;;19.90;81.70;;;;;;5088933;28;20272;-89
2022/08/31 10:55:34;;;;;;;16.30;8.80;;;19.50;84.50;;;;;;5092949;28;20291;-89
2022/08/31 10:58:08;;;;;;;11.05;8.30;;;19.30;86.30;;;;;;5090624;28;20280;-89
2022/08/31 11:00:47;;;;;;;13.02;8.88;;;19.10;89.40;;;;;;5091999;28;20188;-89
2022/08/31 11:03:23;;;;;;;12.35;8.85;;;19.00;90.50;;;;;;5092206;28;20204;-89
2022/08/31 11:05:57;;;;;;;13.90;8.85;;;18.80;90.90;;;;;;5093155;28;20647;-89
2022/08/31 11:08:48;;;;;;;10.50;8.52;;;18.70;91.90;;;;;;5091182;28;20300;-89
2022/08/31 11:11:24;;;;;;;9.73;8.75;;;18.60;92.30;;;;;;5090595;28;20709;-89
2022/08/31 11:14:20;;;;;;;10.95;8.95;;;18.40;92.60;;;;;;5092582;28;20204;-89
2022/08/31 11:17:07;;;;;;;19.95;12.27;;;18.30;93.50;;;;;;5097180;28;20196;-88
2022/08/31 11:19:55;;;;;;;20.27;13.15;;;18.20;97.70;;;;;;5035937;28;20202;-88
2022/08/31 11:22:55;;;;;;;16.40;13.05;;;17.70;98.80;;;;;;5029591;28;20211;-88
2022/08/31 11:26:00;;;;;;;23.25;14.43;;;17.30;99.90;;;;;;5038447;28;20288;-89
2022/08/31 11:28:34;;;;;;;15.10;13.57;;;17.00;99.90;;;;;;5036552;28;20210;-88
2022/08/31 11:31:03;;;;;;;18.70;14.43;;;16.90;99.90;;;;;;5021897;28;20221;-89
2022/08/31 11:33:32;;;;;;;15.90;13.27;;;16.80;99.90;;;;;;5043215;28;20206;-90
2022/08/31 11:36:04;;;;;;;17.10;13.93;;;16.80;99.90;;;;;;5031358;28;20681;-89
2022/08/31 11:38:51;;;;;;;16.88;14.07;;;16.90;99.90;;;;;;5028920;28;20198;-89
2022/08/31 11:41:35;;;;;;;15.57;13.00;;;17.00;99.90;;;;;;5028295;28;20202;-89
2022/08/31 11:44:06;;;;;;;18.00;12.55;;;17.00;99.90;;;;;;5019719;28;20222;-89
2022/08/31 11:47:02;;;;;;;17.40;13.68;;;17.00;99.90;;;;;;5031121;28;20289;-89
2022/08/31 11:49:39;;;;;;;17.52;14.13;;;17.10;99.90;;;;;;5030930;28;20218;-89
2022/08/31 11:52:13;;;;;;;15.73;14.02;;;17.10;99.90;;;;;;5030485;28;20768;-91
2022/08/31 11:55:01;;;;;;;20.70;14.88;;;17.10;99.90;;;;;;5029804;28;20650;-89
2022/08/31 11:57:50;;;;;;;17.42;14.50;;;17.00;99.90;;;;;;5075610;28;20596;-89
2022/08/31 12:00:20;;;;;;;14.88;12.70;;;16.90;99.90;;;;;;5086604;28;20676;-89
2022/08/31 12:03:03;;;;;;;17.33;14.02;;;16.90;99.90;;;;;;5093199;28;20200;-88
2022/08/31 12:05:55;;;;;;;16.27;13.75;;;17.00;99.90;;;;;;5094343;28;20245;-89
2022/08/31 12:08:24;;;;;;;15.68;13.57;;;16.90;99.90;;;;;;5095139;28;20193;-90
2022/08/31 12:11:11;;;;;;;14.40;12.48;;;16.90;99.90;;;;;;5097009;28;20631;-88
2022/08/31 12:13:48;;;;;;;11.38;9.85;;;16.80;99.90;;;;;;5096933;28;20239;-89
2022/08/31 12:16:45;;;;;;;12.32;10.07;;;16.80;99.90;;;;;;5096212;28;20678;-89
2022/08/31 12:25:22;;;;;;;14.73;11.55;;;16.50;99.90;;;;;;5095788;28;20208;-89
2022/08/31 12:28:01;;;;;;;14.57;10.60;;;16.50;99.90;;;;;;5095476;28;20552;-90
2022/08/31 12:30:29;;;;;;;13.82;11.63;;;16.60;99.90;;;;;;5098155;28;20200;-89
2022/08/31 12:33:04;;;;;;;13.63;12.13;;;16.70;99.90;;;;;;5099567;28;20750;-89
2022/08/31 12:35:32;;;;;;;17.63;11.45;;;16.80;99.90;;;;;;5079426;28;20238;-90
2022/08/31 12:38:01;;;;;;;12.70;10.65;;;16.70;99.90;;;;;;5098868;28;20200;-89
2022/08/31 12:40:31;;;;;;;11.88;10.65;;;16.60;99.90;;;;;;5097608;28;20206;-89
2022/08/31 12:43:05;;;;;;;12.15;9.98;;;16.50;99.90;;;;;;5092566;28;20205;-89
2022/08/31 12:45:56;;;;;;;10.45;8.98;;;16.50;99.90;;;;;;5101840;28;20224;-88
2022/08/31 12:48:39;;;;;;;12.15;9.15;;;16.50;99.90;;;;;;5102749;28;20282;-88
2022/08/31 12:51:15;;;;;;;12.88;9.60;;;16.70;99.90;;;;;;5080759;28;20269;-89
2022/08/31 12:54:02;;;;;;;16.23;10.25;;;16.80;99.90;;;;;;5093125;28;20200;-89
2022/08/31 12:56:38;;;;;;;13.55;11.10;;;16.80;99.90;;;;;;5098357;28;20691;-90
2022/08/31 12:59:18;;;;;;;15.77;11.82;;;16.70;99.90;;;;;;5091721;28;20200;-89
2022/08/31 13:01:51;;;;;;;13.05;11.15;;;16.60;99.90;;;;;;5093046;28;20667;-89
2022/08/31 13:04:20;;;;;;;17.67;12.07;;;16.60;99.90;;;;;;5096082;28;20209;-91
2022/08/31 13:06:48;;;;;;;14.40;10.45;;;16.50;99.90;;;;;;5096168;28;20204;-89
2022/08/31 13:09:29;;;;;;;14.40;11.55;;;16.60;99.90;;;;;;5092678;28;20576;-90
2022/08/31 13:11:58;;;;;;;14.90;11.43;;;16.50;99.90;;;;;;5090450;28;20213;-89
2022/08/31 13:14:26;;;;;;;14.80;12.10;;;16.40;99.90;;;;;;5078964;28;20201;-89
2022/08/31 13:17:06;;;;;;;13.90;11.38;;;16.30;99.90;;;;;;5094714;28;20200;-90